createdAt,value
2022-08-05T00:00:16.254Z,54.89
2022-08-05T00:02:50.762Z,57.23
2022-08-05T00:05:27.085Z,57.08
2022-08-05T00:08:20.029Z,57.40
2022-08-05T00:11:00.501Z,57.88
2022-08-05T00:13:38.383Z,57.52
2022-08-05T00:16:09.554Z,56.98
2022-08-05T00:18:39.965Z,56.08
2022-08-05T00:21:09.183Z,54.83
2022-08-05T00:23:46.085Z,54.56
2022-08-05T00:26:15.300Z,54.93
2022-08-05T00:28:44.099Z,55.17
2022-08-05T00:31:13.129Z,56.52
2022-08-05T00:34:55.705Z,56.94
2022-08-05T00:37:09.902Z,57.27
2022-08-05T00:39:13.944Z,56.07
2022-08-05T00:41:46.785Z,54.81
2022-08-05T00:44:18.366Z,54.09
2022-08-05T00:46:47.543Z,55.71
2022-08-05T00:49:21.036Z,56.92
2022-08-05T00:51:51.741Z,56.12
2022-08-05T00:54:19.140Z,56.19
2022-08-05T00:56:51.450Z,55.28
2022-08-05T00:59:18.670Z,56.81
2022-08-05T01:01:49.295Z,57.75
2022-08-05T01:04:16.198Z,57.78
2022-08-05T01:06:49.086Z,57.40
2022-08-05T01:09:19.949Z,57.70
2022-08-05T01:11:50.825Z,57.32
2022-08-05T01:14:33.499Z,56.79
2022-08-05T01:17:10.727Z,56.80
2022-08-05T01:20:03.699Z,56.98
2022-08-05T01:23:01.523Z,57.64
2022-08-05T01:25:59.395Z,57.08
2022-08-05T01:28:29.101Z,57.24
2022-08-05T01:31:08.971Z,58.33
2022-08-05T01:33:42.061Z,57.85
2022-08-05T01:36:17.378Z,56.80
2022-08-05T01:38:49.992Z,58.23
2022-08-05T01:41:21.885Z,59.02
2022-08-05T01:43:50.877Z,58.28
2022-08-05T01:46:43.050Z,56.84
2022-08-05T01:49:22.717Z,58.03
2022-08-05T01:51:55.350Z,59.32
2022-08-05T01:54:27.136Z,59.13
2022-08-05T01:58:10.722Z,58.72
2022-08-05T01:59:47.258Z,58.55
2022-08-05T02:02:16.041Z,58.02
2022-08-05T02:04:49.631Z,57.12
2022-08-05T02:07:21.928Z,57.42
2022-08-05T02:09:51.013Z,58.64
2022-08-05T02:12:44.268Z,59.83
2022-08-05T02:15:35.485Z,59.90
2022-08-05T02:18:28.424Z,59.64
2022-08-05T02:20:58.956Z,58.58
2022-08-05T02:23:33.706Z,57.62
2022-08-05T02:26:06.156Z,57.98
2022-08-05T02:28:41.873Z,58.02
2022-08-05T02:31:16.709Z,58.69
2022-08-05T02:33:57.772Z,57.96
2022-08-05T02:36:27.277Z,58.15
2022-08-05T02:38:56.297Z,59.08
2022-08-05T02:41:28.826Z,59.04
2022-08-05T02:44:13.210Z,59.26
2022-08-05T02:46:58.581Z,59.68
2022-08-05T02:49:35.756Z,59.71
2022-08-05T02:52:07.729Z,59.25
2022-08-05T02:54:37.269Z,59.06
2022-08-05T02:58:09.941Z,58.52
2022-08-05T02:59:57.583Z,58.13
2022-08-05T03:02:33.854Z,59.28
2022-08-05T03:05:01.914Z,59.78
2022-08-05T03:08:00.705Z,59.71
2022-08-05T03:10:21.716Z,60.19
2022-08-05T03:12:51.807Z,60.24
2022-08-05T03:15:20.074Z,60.92
2022-08-05T03:17:46.726Z,60.51
2022-08-05T03:20:13.693Z,60.03
2022-08-05T03:22:44.142Z,60.45
2022-08-05T03:25:32.989Z,61.38
2022-08-05T03:28:08.285Z,61.44
2022-08-05T03:30:36.728Z,59.88
2022-08-05T03:33:07.354Z,59.33
2022-08-05T03:35:41.181Z,58.86
2022-08-05T03:38:11.219Z,58.24
2022-08-05T03:40:47.305Z,58.21
2022-08-05T03:44:08.306Z,57.79
2022-08-05T03:46:04.412Z,58.04
2022-08-05T03:48:35.097Z,59.61
2022-08-05T03:52:38.510Z,60.44
2022-08-05T03:55:49.906Z,60.67
2022-08-05T03:57:16.461Z,59.50
2022-08-05T03:59:54.966Z,58.84
2022-08-05T04:02:39.067Z,59.51
2022-08-05T04:05:16.298Z,59.92
2022-08-05T04:07:57.389Z,60.75
2022-08-05T04:10:24.874Z,60.68
2022-08-05T04:12:55.478Z,60.87
2022-08-05T04:15:26.408Z,60.14
2022-08-05T04:17:57.351Z,60.00
2022-08-05T04:20:26.709Z,60.55
2022-08-05T04:22:53.231Z,60.04
2022-08-05T04:25:20.125Z,61.23
2022-08-05T04:28:11.446Z,61.79
2022-08-05T04:30:39.754Z,60.25
2022-08-05T04:33:06.362Z,59.21
2022-08-05T04:36:10.932Z,59.21
2022-08-05T04:38:21.047Z,59.49
2022-08-05T04:40:50.711Z,59.82
2022-08-05T04:43:18.198Z,59.69
2022-08-05T04:45:54.938Z,59.67
2022-08-05T04:48:27.329Z,61.01
2022-08-05T04:51:02.863Z,60.27
2022-08-05T04:53:36.706Z,60.08
2022-08-05T04:56:33.656Z,60.94
2022-08-05T04:58:54.875Z,60.52
2022-08-05T05:02:05.740Z,61.28
2022-08-05T05:04:08.133Z,61.63
2022-08-05T05:06:44.446Z,60.85
2022-08-05T05:09:17.388Z,63.88
2022-08-05T05:11:53.188Z,65.84
2022-08-05T05:14:28.023Z,66.04
2022-08-05T05:17:00.114Z,67.35
2022-08-05T05:19:36.591Z,66.41
2022-08-05T05:22:24.596Z,65.38
2022-08-05T05:24:58.146Z,63.63
2022-08-05T05:27:44.730Z,63.93
2022-08-05T05:30:29.770Z,61.57
2022-08-05T05:33:03.593Z,62.23
2022-08-05T05:35:43.762Z,60.11
2022-08-05T05:38:13.231Z,59.89
2022-08-05T05:40:47.961Z,61.83
2022-08-05T05:43:22.366Z,60.83
2022-08-05T05:45:54.899Z,61.31
2022-08-05T05:48:27.783Z,61.57
2022-08-05T05:50:54.561Z,61.42
2022-08-05T05:53:22.416Z,60.59
2022-08-05T05:55:51.962Z,61.82
2022-08-05T05:58:31.990Z,61.83
2022-08-05T06:01:12.593Z,61.62
2022-08-05T06:04:00.436Z,61.48
2022-08-05T06:06:31.054Z,61.49
2022-08-05T06:09:00.302Z,62.51
2022-08-05T06:11:28.971Z,62.55
2022-08-05T06:13:56.134Z,62.00
2022-08-05T06:16:29.648Z,60.79
2022-08-05T06:19:00.208Z,60.92
2022-08-05T06:21:35.889Z,61.30
2022-08-05T06:24:07.693Z,61.31
2022-08-05T06:26:51.546Z,63.59
2022-08-05T06:29:42.895Z,62.46
2022-08-05T06:32:21.321Z,62.52
2022-08-05T06:34:53.283Z,61.98
2022-08-05T06:37:56.369Z,62.40
2022-08-05T06:40:07.760Z,62.67
2022-08-05T06:42:34.450Z,62.34
2022-08-05T06:45:05.286Z,61.85
2022-08-05T06:48:35.996Z,61.57
2022-08-05T06:50:18.780Z,61.37
2022-08-05T06:52:58.386Z,63.78
2022-08-05T06:55:25.692Z,60.14
2022-08-05T06:58:03.836Z,59.26
2022-08-05T07:00:41.165Z,58.58
2022-08-05T07:03:09.849Z,58.27
2022-08-05T07:05:37.635Z,58.82
2022-08-05T07:08:04.881Z,58.84
2022-08-05T07:10:32.726Z,58.92
2022-08-05T07:13:37.260Z,59.51
2022-08-05T07:16:50.970Z,60.44
2022-08-05T07:19:10.195Z,60.69
2022-08-05T07:22:00.546Z,60.65
2022-08-05T07:24:24.177Z,60.71
2022-08-05T07:26:55.419Z,60.45
2022-08-05T07:30:22.165Z,60.52
2022-08-05T07:32:08.599Z,58.57
2022-08-05T07:34:37.218Z,58.69
2022-08-05T07:37:11.576Z,59.10
2022-08-05T07:40:26.131Z,57.77
2022-08-05T07:42:33.416Z,57.28
2022-08-05T07:45:00.722Z,57.61
2022-08-05T07:47:27.404Z,57.28
2022-08-05T07:50:09.693Z,56.88
2022-08-05T07:52:41.155Z,56.44
2022-08-05T07:55:44.501Z,56.63
2022-08-05T07:58:02.364Z,55.59
2022-08-05T08:00:31.887Z,55.23
2022-08-05T08:03:14.322Z,55.14
2022-08-05T08:05:49.692Z,55.24
2022-08-05T08:08:20.596Z,55.58
2022-08-05T08:10:50.662Z,54.77
2022-08-05T08:13:22.105Z,56.16
2022-08-05T08:16:49.866Z,55.69
2022-08-05T08:18:42.666Z,54.39
2022-08-05T08:21:17.653Z,55.13
2022-08-05T08:24:03.842Z,56.14
2022-08-05T08:26:32.365Z,55.83
2022-08-05T08:29:22.255Z,54.27
2022-08-05T08:31:47.046Z,53.77
2022-08-05T08:34:15.097Z,54.28
2022-08-05T08:36:48.907Z,54.48
2022-08-05T08:39:19.790Z,55.20
2022-08-05T08:41:52.102Z,54.85
2022-08-05T08:45:21.245Z,55.18
2022-08-05T08:48:05.721Z,56.09
2022-08-05T08:50:31.660Z,55.66
2022-08-05T08:53:08.214Z,56.46
2022-08-05T08:56:02.774Z,55.35
2022-08-05T08:58:43.132Z,53.32
2022-08-05T09:01:12.057Z,52.77
2022-08-05T09:03:46.780Z,53.27
2022-08-05T09:06:17.157Z,53.78
2022-08-05T09:08:47.002Z,52.46
2022-08-05T09:11:18.840Z,52.31
2022-08-05T09:14:54.378Z,52.99
2022-08-05T09:16:52.923Z,51.43
2022-08-05T09:19:20.228Z,49.97
2022-08-05T09:22:18.387Z,49.08
2022-08-05T09:24:42.540Z,48.34
2022-08-05T09:27:09.639Z,48.67
2022-08-05T09:29:48.040Z,50.13
2022-08-05T09:32:40.057Z,52.22
2022-08-05T09:35:26.775Z,50.55
2022-08-05T09:38:12.272Z,51.70
2022-08-05T09:40:51.888Z,49.91
2022-08-05T09:43:41.474Z,49.01
2022-08-05T09:46:27.414Z,48.33
2022-08-05T09:49:08.157Z,48.09
2022-08-05T09:51:49.475Z,49.73
2022-08-05T09:54:28.799Z,47.20
2022-08-05T09:56:57.435Z,46.57
2022-08-05T09:59:27.632Z,45.54
2022-08-05T10:01:57.946Z,48.70
2022-08-05T10:04:35.852Z,47.93
2022-08-05T10:07:20.574Z,46.41
2022-08-05T10:10:15.222Z,42.23
2022-08-05T10:12:49.820Z,41.69
2022-08-05T10:15:27.736Z,41.79
2022-08-05T10:18:14.179Z,42.25
2022-08-05T10:20:47.692Z,43.38
2022-08-05T10:23:59.432Z,42.79
2022-08-05T10:26:31.618Z,43.51
2022-08-05T10:28:59.274Z,43.39
2022-08-05T10:32:53.398Z,43.75
2022-08-05T10:34:12.845Z,43.98
2022-08-05T10:36:41.519Z,45.24
2022-08-05T10:39:24.484Z,44.96
2022-08-05T10:42:02.761Z,42.48
2022-08-05T10:44:32.667Z,42.62
2022-08-05T10:47:10.245Z,42.39
2022-08-05T10:50:33.035Z,42.68
2022-08-05T10:52:59.952Z,44.17
2022-08-05T10:55:27.401Z,43.34
2022-08-05T10:58:11.663Z,42.90
2022-08-05T11:00:47.619Z,43.19
2022-08-05T11:03:23.312Z,43.17
2022-08-05T11:06:15.558Z,42.78
2022-08-05T11:09:31.941Z,42.98
2022-08-05T11:12:26.234Z,42.11
2022-08-05T11:15:20.389Z,41.26
2022-08-05T11:18:09.758Z,41.84
2022-08-05T11:20:45.049Z,41.37
2022-08-05T11:23:33.735Z,40.48
2022-08-05T11:26:28.207Z,40.22
2022-08-05T11:29:06.626Z,40.55
2022-08-05T11:31:58.788Z,40.77
2022-08-05T11:34:37.574Z,41.37
2022-08-05T11:37:06.184Z,39.81
2022-08-05T11:40:00.305Z,40.56
2022-08-05T11:42:37.782Z,39.08
2022-08-05T11:45:14.323Z,39.77
2022-08-05T11:47:55.369Z,39.55
2022-08-05T11:50:22.843Z,38.91
2022-08-05T11:52:53.200Z,39.35
2022-08-05T11:55:24.075Z,39.00
2022-08-05T11:58:09.586Z,38.74
2022-08-05T12:00:39.099Z,40.03
2022-08-05T12:03:29.176Z,38.88
2022-08-05T12:06:06.675Z,39.25
2022-08-05T12:08:58.660Z,38.86
2022-08-05T12:11:40.175Z,39.76
2022-08-05T12:14:10.323Z,38.65
2022-08-05T12:16:40.259Z,39.02
2022-08-05T12:20:26.719Z,39.10
2022-08-05T12:21:58.950Z,37.98
2022-08-05T12:24:27.817Z,38.59
2022-08-05T12:26:54.889Z,38.65
2022-08-05T12:29:26.730Z,38.65
2022-08-05T12:31:56.137Z,39.53
2022-08-05T12:34:35.850Z,38.91
2022-08-05T12:37:10.864Z,38.90
2022-08-05T12:39:44.907Z,37.94
2022-08-05T12:42:19.424Z,37.44
2022-08-05T12:44:47.502Z,37.90
2022-08-05T12:47:26.354Z,38.56
2022-08-05T12:50:02.006Z,38.31
2022-08-05T12:52:39.348Z,37.80
2022-08-05T12:55:28.401Z,37.36
2022-08-05T12:58:38.657Z,37.35
2022-08-05T13:02:02.758Z,37.59
2022-08-05T13:03:41.598Z,37.87
2022-08-05T13:06:13.272Z,37.64
2022-08-05T13:08:40.035Z,36.89
2022-08-05T13:11:07.860Z,37.55
2022-08-05T13:14:05.171Z,37.49
2022-08-05T13:16:28.760Z,37.21
2022-08-05T13:18:59.423Z,36.92
2022-08-05T13:21:28.515Z,36.58
2022-08-05T13:24:08.905Z,36.53
2022-08-05T13:26:36.061Z,36.63
2022-08-05T13:29:02.628Z,36.52
2022-08-05T13:32:03.375Z,36.85
2022-08-05T13:34:22.859Z,36.13
2022-08-05T13:36:54.087Z,36.44
2022-08-05T13:40:14.549Z,36.18
2022-08-05T13:42:14.296Z,37.00
2022-08-05T13:44:45.561Z,35.81
2022-08-05T13:47:36.006Z,36.60
2022-08-05T13:50:04.091Z,35.62
2022-08-05T13:52:35.164Z,35.98
2022-08-05T13:55:07.312Z,35.85
2022-08-05T13:57:51.088Z,35.48
2022-08-05T14:00:27.667Z,35.60
2022-08-05T14:02:57.361Z,35.63
2022-08-05T14:05:48.129Z,35.21
2022-08-05T14:08:20.484Z,34.89
2022-08-05T14:10:53.861Z,34.89
2022-08-05T14:13:30.407Z,34.96
2022-08-05T14:16:09.325Z,34.68
2022-08-05T14:18:38.102Z,35.19
2022-08-05T14:22:07.281Z,35.13
2022-08-05T14:23:51.452Z,34.01
2022-08-05T14:26:36.891Z,34.24
2022-08-05T14:29:05.010Z,36.10
2022-08-05T14:32:03.084Z,34.88
2022-08-05T14:34:18.810Z,34.99
2022-08-05T14:36:50.623Z,35.16
2022-08-05T14:39:23.409Z,35.42
2022-08-05T14:42:16.758Z,34.39
2022-08-05T14:44:37.089Z,34.43
2022-08-05T14:47:03.929Z,33.88
2022-08-05T14:49:56.109Z,33.84
2022-08-05T14:52:36.273Z,34.44
2022-08-05T14:55:04.045Z,35.14
2022-08-05T14:57:34.042Z,34.68
2022-08-05T15:00:17.351Z,35.02
2022-08-05T15:02:47.188Z,34.65
2022-08-05T15:05:14.298Z,35.17
2022-08-05T15:08:10.689Z,35.57
2022-08-05T15:10:28.904Z,36.28
2022-08-05T15:13:00.836Z,35.00
2022-08-05T15:15:54.494Z,32.21
2022-08-05T15:18:17.534Z,31.76
2022-08-05T15:20:44.397Z,32.41
2022-08-05T15:23:14.776Z,33.09
2022-08-05T15:25:53.818Z,32.93
2022-08-05T15:28:27.387Z,32.94
2022-08-05T15:30:55.375Z,33.31
2022-08-05T15:34:04.469Z,33.85
2022-08-05T15:36:17.378Z,34.59
2022-08-05T15:40:59.023Z,34.75
2022-08-05T15:41:57.631Z,33.93
2022-08-05T15:44:27.585Z,33.65
2022-08-05T15:46:55.677Z,33.53
2022-08-05T15:49:53.781Z,34.24
2022-08-05T15:52:16.135Z,33.26
2022-08-05T15:54:43.830Z,32.24
2022-08-05T15:57:10.870Z,33.42
2022-08-05T15:59:38.118Z,32.86
2022-08-05T16:02:09.622Z,32.97
2022-08-05T16:04:42.496Z,32.51
2022-08-05T16:07:10.797Z,32.78
2022-08-05T16:09:37.981Z,32.30
2022-08-05T16:12:09.319Z,32.61
2022-08-05T16:14:38.138Z,32.38
2022-08-05T16:17:04.958Z,32.06
2022-08-05T16:20:04.199Z,32.17
2022-08-05T16:22:24.323Z,32.25
2022-08-05T16:24:54.549Z,32.42
2022-08-05T16:27:47.206Z,32.71
2022-08-05T16:30:23.217Z,34.74
2022-08-05T16:32:52.157Z,35.06
2022-08-05T16:35:19.563Z,34.20
2022-08-05T16:38:02.656Z,35.26
2022-08-05T16:40:42.746Z,35.78
2022-08-05T16:43:19.376Z,34.26
2022-08-05T16:46:06.332Z,34.67
2022-08-05T16:48:35.523Z,35.14
2022-08-05T16:51:02.548Z,35.05
2022-08-05T16:54:05.302Z,34.82
2022-08-05T16:56:23.369Z,34.79
2022-08-05T16:58:50.792Z,34.34
2022-08-05T17:01:18.761Z,35.99
2022-08-05T17:03:46.596Z,39.55
2022-08-05T17:06:16.597Z,40.34
2022-08-05T17:08:53.389Z,40.07
2022-08-05T17:11:23.761Z,40.88
2022-08-05T17:14:00.173Z,40.80
2022-08-05T17:16:33.305Z,41.09
2022-08-05T17:19:03.210Z,41.00
2022-08-05T17:21:36.222Z,41.88
2022-08-05T17:24:19.778Z,42.07
2022-08-05T17:26:57.821Z,42.35
2022-08-05T17:29:33.665Z,42.10
2022-08-05T17:32:17.019Z,42.27
2022-08-05T17:34:53.265Z,41.81
2022-08-05T17:37:39.324Z,41.77
2022-08-05T17:40:10.213Z,41.36
2022-08-05T17:42:46.405Z,41.58
2022-08-05T17:45:24.778Z,42.70
2022-08-05T17:47:55.457Z,43.74
2022-08-05T17:50:28.032Z,44.16
2022-08-05T17:52:56.294Z,44.57
2022-08-05T17:55:27.192Z,43.94
2022-08-05T17:57:54.345Z,44.95
2022-08-05T18:00:20.885Z,45.85
2022-08-05T18:02:55.348Z,45.76
2022-08-05T18:05:22.062Z,46.08
2022-08-05T18:07:48.793Z,46.72
2022-08-05T18:10:20.855Z,47.01
2022-08-05T18:12:49.334Z,47.27
2022-08-05T18:15:16.170Z,46.50
2022-08-05T18:17:59.723Z,46.04
2022-08-05T18:20:32.056Z,47.08
2022-08-05T18:23:09.567Z,46.95
2022-08-05T18:25:45.355Z,46.30
2022-08-05T18:28:16.453Z,46.15
2022-08-05T18:30:45.178Z,45.92
2022-08-05T18:33:13.760Z,46.00
2022-08-05T18:36:00.817Z,45.23
2022-08-05T18:38:28.370Z,45.66
2022-08-05T18:41:57.518Z,46.39
2022-08-05T18:43:42.668Z,46.21
2022-08-05T18:46:15.020Z,46.46
2022-08-05T18:48:42.159Z,46.62
2022-08-05T18:52:04.238Z,47.55
2022-08-05T18:54:14.883Z,47.84
2022-08-05T18:56:41.753Z,48.32
2022-08-05T18:59:43.494Z,48.64
2022-08-05T19:02:04.992Z,49.00
2022-08-05T19:05:01.652Z,49.75
2022-08-05T19:07:45.404Z,49.11
2022-08-05T19:10:18.652Z,49.04
2022-08-05T19:12:53.043Z,48.42
2022-08-05T19:15:56.675Z,47.40
2022-08-05T19:18:10.264Z,48.06
2022-08-05T19:20:46.646Z,48.89
2022-08-05T19:23:22.374Z,49.18
2022-08-05T19:26:02.935Z,49.11
2022-08-05T19:28:32.917Z,49.85
2022-08-05T19:31:01.300Z,49.94
2022-08-05T19:33:36.386Z,49.83
2022-08-05T19:36:06.009Z,50.29
2022-08-05T19:38:36.702Z,50.78
2022-08-05T19:41:07.402Z,50.13
2022-08-05T19:44:06.629Z,50.19
2022-08-05T19:46:29.243Z,50.00
2022-08-05T19:48:56.497Z,50.08
2022-08-05T19:51:37.866Z,50.18
2022-08-05T19:54:15.481Z,50.09
2022-08-05T19:56:54.409Z,49.51
2022-08-05T19:59:22.069Z,49.78
2022-08-05T20:02:08.093Z,50.34
2022-08-05T20:04:34.963Z,50.51
2022-08-05T20:07:01.952Z,50.45
2022-08-05T20:09:28.582Z,50.52
2022-08-05T20:12:15.249Z,50.26
2022-08-05T20:14:41.923Z,50.99
2022-08-05T20:17:09.947Z,51.44
2022-08-05T20:19:41.400Z,51.38
2022-08-05T20:22:09.550Z,52.01
2022-08-05T20:24:36.414Z,52.51
2022-08-05T20:27:04.764Z,52.91
2022-08-05T20:29:38.283Z,53.05
2022-08-05T20:32:06.575Z,52.32
2022-08-05T20:34:33.545Z,52.35
2022-08-05T20:37:00.866Z,52.16
2022-08-05T20:39:35.671Z,51.27
2022-08-05T20:42:04.634Z,51.17
2022-08-05T20:44:33.098Z,52.15
2022-08-05T20:47:06.657Z,52.31
2022-08-05T20:49:39.504Z,53.24
2022-08-05T20:52:07.709Z,53.45
2022-08-05T20:54:43.037Z,52.99
2022-08-05T20:57:42.003Z,53.70
2022-08-05T21:00:34.937Z,55.06
2022-08-05T21:03:01.264Z,54.72
2022-08-05T21:05:47.883Z,55.24
2022-08-05T21:08:15.437Z,56.05
2022-08-05T21:10:48.863Z,55.98
2022-08-05T21:13:26.508Z,56.00
2022-08-05T21:16:03.719Z,56.51
2022-08-05T21:18:30.772Z,56.88
2022-08-05T21:20:57.673Z,56.49
2022-08-05T21:23:24.924Z,56.36
2022-08-05T21:25:51.684Z,56.81
2022-08-05T21:28:23.545Z,56.63
2022-08-05T21:30:50.759Z,56.24
2022-08-05T21:33:22.003Z,55.49
2022-08-05T21:35:58.224Z,55.29
2022-08-05T21:38:26.728Z,54.42
2022-08-05T21:40:53.850Z,54.57
2022-08-05T21:43:24.706Z,53.67
2022-08-05T21:45:57.727Z,53.65
2022-08-05T21:48:28.192Z,54.15
2022-08-05T21:50:55.212Z,54.60
2022-08-05T21:53:27.203Z,54.71
2022-08-05T21:56:05.638Z,54.46
2022-08-05T21:58:36.765Z,55.67
2022-08-05T22:01:10.526Z,56.56
2022-08-05T22:03:52.048Z,57.20
2022-08-05T22:06:22.866Z,57.47
2022-08-05T22:08:52.168Z,56.84
2022-08-05T22:11:34.834Z,55.88
2022-08-05T22:14:05.777Z,55.77
2022-08-05T22:16:53.170Z,56.31
2022-08-05T22:20:00.226Z,56.53
2022-08-05T22:22:11.242Z,56.69
2022-08-05T22:24:57.414Z,57.14
2022-08-05T22:28:10.640Z,56.66
2022-08-05T22:30:32.298Z,57.27
2022-08-05T22:33:02.648Z,57.77
2022-08-05T22:35:47.812Z,57.69
2022-08-05T22:38:15.927Z,58.08
2022-08-05T22:40:49.933Z,58.35
2022-08-05T22:43:36.998Z,58.48
2022-08-05T22:46:12.226Z,57.55
2022-08-05T22:48:41.947Z,57.54
2022-08-05T22:51:16.070Z,57.71
2022-08-05T22:53:51.077Z,57.20
2022-08-05T22:56:29.797Z,56.88
2022-08-05T22:58:58.385Z,57.17
2022-08-05T23:02:04.015Z,56.97
2022-08-05T23:04:13.986Z,57.75
2022-08-05T23:06:41.098Z,58.38
2022-08-05T23:09:24.574Z,58.45
2022-08-05T23:11:55.858Z,58.68
2022-08-05T23:14:31.862Z,58.49
2022-08-05T23:17:18.707Z,58.37
2022-08-05T23:19:57.823Z,57.27
2022-08-05T23:22:27.477Z,57.21
2022-08-05T23:24:55.252Z,57.08
2022-08-05T23:27:22.711Z,56.37
2022-08-05T23:29:50.895Z,55.68
2022-08-05T23:32:22.510Z,56.67
2022-08-05T23:34:50.733Z,56.73
2022-08-05T23:37:17.965Z,57.00
2022-08-05T23:39:54.170Z,57.24
2022-08-05T23:42:29.182Z,58.49
2022-08-05T23:44:56.618Z,59.15
2022-08-05T23:47:24.931Z,58.92
2022-08-05T23:49:52.058Z,58.95
2022-08-05T23:52:32.633Z,58.70
2022-08-05T23:55:09.094Z,58.45
2022-08-05T23:57:36.128Z,59.03
